createdAt,value
2022-12-03T00:00:12.578Z,6.90
2022-12-03T00:02:41.738Z,6.50
2022-12-03T00:05:10.269Z,7.20
2022-12-03T00:07:38.112Z,6.60
2022-12-03T00:10:06.989Z,7.33
2022-12-03T00:12:34.601Z,6.40
2022-12-03T00:15:02.068Z,6.40
2022-12-03T00:17:29.685Z,6.80
2022-12-03T00:19:57.218Z,8.23
2022-12-03T00:22:24.759Z,6.27
2022-12-03T00:24:52.405Z,6.60
2022-12-03T00:27:20.012Z,8.00
2022-12-03T00:29:47.639Z,8.00
2022-12-03T00:32:15.175Z,8.07
2022-12-03T00:34:42.640Z,7.67
2022-12-03T00:37:10.124Z,6.13
2022-12-03T00:39:37.777Z,6.97
2022-12-03T00:42:05.671Z,8.60
2022-12-03T00:44:33.198Z,5.13
2022-12-03T00:47:00.740Z,10.80
2022-12-03T00:49:28.354Z,8.07
2022-12-03T00:51:55.830Z,9.47
2022-12-03T00:54:26.972Z,6.67
2022-12-03T00:56:58.948Z,11.10
2022-12-03T00:59:26.383Z,8.37
2022-12-03T01:01:54.096Z,8.27
2022-12-03T01:04:21.880Z,7.93
2022-12-03T01:06:49.502Z,6.93
2022-12-03T01:09:17.148Z,8.20
2022-12-03T01:11:44.673Z,10.20
2022-12-03T01:14:15.576Z,6.90
2022-12-03T01:16:43.911Z,6.83
2022-12-03T01:19:16.097Z,5.30
2022-12-03T01:21:45.228Z,8.68
2022-12-03T01:24:13.093Z,9.20
2022-12-03T01:26:40.801Z,10.97
2022-12-03T01:29:08.423Z,7.43
2022-12-03T01:31:54.207Z,9.03
2022-12-03T01:34:22.288Z,9.73
2022-12-03T01:36:49.806Z,9.03
2022-12-03T01:39:17.447Z,6.77
2022-12-03T01:41:46.103Z,9.03
2022-12-03T01:44:27.502Z,9.73
2022-12-03T01:46:57.080Z,9.40
2022-12-03T01:49:28.865Z,11.73
2022-12-03T01:51:58.119Z,7.13
2022-12-03T01:54:31.415Z,9.37
2022-12-03T01:56:59.151Z,10.13
2022-12-03T01:59:36.612Z,8.57
2022-12-03T02:02:22.930Z,9.27
2022-12-03T02:04:53.427Z,10.43
2022-12-03T02:07:25.097Z,7.83
2022-12-03T02:09:54.371Z,8.47
2022-12-03T02:12:30.579Z,9.00
2022-12-03T02:14:58.859Z,8.27
2022-12-03T02:17:27.387Z,6.53
2022-12-03T02:19:56.465Z,8.33
2022-12-03T02:22:44.160Z,10.50
2022-12-03T02:25:15.190Z,7.53
2022-12-03T02:27:43.695Z,5.87
2022-12-03T02:30:13.881Z,9.30
2022-12-03T02:32:41.582Z,7.83
2022-12-03T02:35:21.238Z,8.80
2022-12-03T02:37:51.983Z,7.70
2022-12-03T02:40:23.051Z,9.33
2022-12-03T02:42:54.452Z,9.13
2022-12-03T02:45:36.104Z,9.00
2022-12-03T02:48:11.977Z,11.67
2022-12-03T02:50:46.521Z,9.40
2022-12-03T02:53:20.781Z,11.87
2022-12-03T02:55:49.637Z,10.83
2022-12-03T02:58:18.216Z,9.80
2022-12-03T03:00:47.036Z,10.83
2022-12-03T03:03:15.341Z,8.80
2022-12-03T03:05:43.029Z,14.70
2022-12-03T03:08:11.982Z,14.23
2022-12-03T03:10:42.548Z,12.13
2022-12-03T03:13:15.154Z,11.90
2022-12-03T03:15:43.289Z,9.35
2022-12-03T03:18:13.620Z,9.33
2022-12-03T03:20:42.003Z,13.10
2022-12-03T03:23:12.250Z,9.23
2022-12-03T03:25:44.267Z,9.17
2022-12-03T03:28:13.300Z,13.38
2022-12-03T03:30:42.603Z,15.00
2022-12-03T03:33:12.825Z,11.23
2022-12-03T03:35:40.708Z,11.10
2022-12-03T03:38:09.593Z,15.47
2022-12-03T03:40:38.430Z,11.50
2022-12-03T03:43:07.401Z,11.70
2022-12-03T03:45:34.887Z,12.67
2022-12-03T03:48:02.472Z,11.87
2022-12-03T03:50:31.744Z,15.23
2022-12-03T03:53:01.681Z,13.07
2022-12-03T03:55:30.182Z,12.07
2022-12-03T03:57:57.886Z,12.57
2022-12-03T04:00:25.781Z,11.73
2022-12-03T04:02:54.738Z,14.07
2022-12-03T04:05:24.914Z,10.80
2022-12-03T04:07:52.527Z,15.63
2022-12-03T04:10:43.473Z,12.93
2022-12-03T04:13:10.881Z,11.93
2022-12-03T04:15:38.418Z,13.00
2022-12-03T04:18:24.880Z,12.53
2022-12-03T04:21:12.324Z,10.67
2022-12-03T04:23:40.509Z,14.27
2022-12-03T04:26:26.601Z,13.90
2022-12-03T04:28:54.551Z,12.00
2022-12-03T04:31:40.719Z,10.93
2022-12-03T04:34:28.419Z,10.43
2022-12-03T04:36:56.491Z,12.60
2022-12-03T04:39:24.143Z,16.07
2022-12-03T04:41:51.576Z,13.67
2022-12-03T04:44:35.877Z,8.10
2022-12-03T04:47:04.775Z,11.43
2022-12-03T04:49:32.760Z,14.33
2022-12-03T04:52:00.449Z,12.30
2022-12-03T04:54:28.768Z,12.97
2022-12-03T04:56:56.277Z,12.27
2022-12-03T04:59:24.037Z,14.27
2022-12-03T05:01:51.591Z,10.17
2022-12-03T05:04:19.210Z,10.97
2022-12-03T05:06:46.857Z,10.07
2022-12-03T05:09:14.610Z,8.13
2022-12-03T05:11:43.079Z,10.53
2022-12-03T05:14:11.356Z,10.40
2022-12-03T05:16:39.293Z,11.57
2022-12-03T05:19:08.694Z,10.80
2022-12-03T05:21:36.395Z,15.97
2022-12-03T05:24:04.345Z,14.73
2022-12-03T05:26:31.815Z,11.40
2022-12-03T05:28:59.512Z,11.07
2022-12-03T05:31:27.265Z,11.27
2022-12-03T05:33:55.359Z,10.73
2022-12-03T05:36:23.114Z,11.27
2022-12-03T05:38:50.642Z,10.30
2022-12-03T05:41:36.501Z,9.80
2022-12-03T05:44:03.980Z,10.57
2022-12-03T05:46:32.767Z,13.77
2022-12-03T05:49:00.558Z,13.60
2022-12-03T05:51:28.094Z,11.17
2022-12-03T05:53:57.743Z,13.33
2022-12-03T05:56:25.187Z,12.50
2022-12-03T05:58:52.612Z,12.50
2022-12-03T06:01:21.969Z,13.90
2022-12-03T06:03:49.523Z,11.53
2022-12-03T06:06:17.114Z,13.77
2022-12-03T06:08:44.588Z,10.67
2022-12-03T06:11:12.083Z,7.17
2022-12-03T06:13:39.506Z,11.53
2022-12-03T06:16:07.164Z,10.43
2022-12-03T06:18:34.760Z,12.00
2022-12-03T06:21:02.275Z,9.43
2022-12-03T06:23:29.760Z,9.70
2022-12-03T06:25:57.280Z,9.70
2022-12-03T06:28:24.768Z,9.77
2022-12-03T06:30:52.311Z,9.03
2022-12-03T06:33:22.888Z,9.50
2022-12-03T06:35:50.381Z,10.90
2022-12-03T06:38:17.886Z,10.67
2022-12-03T06:40:45.300Z,13.03
2022-12-03T06:43:12.847Z,11.40
2022-12-03T06:45:46.152Z,10.00
2022-12-03T06:48:15.497Z,11.63
2022-12-03T06:50:42.952Z,11.57
2022-12-03T06:53:10.375Z,11.33
2022-12-03T06:55:37.804Z,8.67
2022-12-03T06:58:05.238Z,10.10
2022-12-03T07:00:32.780Z,10.90
2022-12-03T07:03:00.300Z,10.80
2022-12-03T07:05:27.912Z,10.90
2022-12-03T07:07:55.609Z,9.53
2022-12-03T07:10:23.398Z,11.50
2022-12-03T07:12:50.822Z,11.57
2022-12-03T07:15:18.524Z,9.30
2022-12-03T07:17:45.884Z,13.60
2022-12-03T07:20:13.780Z,10.43
2022-12-03T07:22:41.323Z,7.40
2022-12-03T07:25:09.212Z,10.30
2022-12-03T07:27:36.737Z,14.50
2022-12-03T07:30:05.865Z,9.57
2022-12-03T07:32:33.538Z,14.03
2022-12-03T07:35:01.411Z,10.03
2022-12-03T07:37:28.936Z,8.10
2022-12-03T07:39:56.517Z,8.20
2022-12-03T07:42:23.947Z,10.93
2022-12-03T07:44:51.931Z,8.60
2022-12-03T07:47:19.552Z,12.40
2022-12-03T07:49:47.245Z,12.07
2022-12-03T07:52:14.712Z,11.93
2022-12-03T07:54:42.224Z,9.80
2022-12-03T07:57:09.766Z,8.33
2022-12-03T07:59:37.369Z,10.73
2022-12-03T08:02:04.961Z,11.20
2022-12-03T08:04:32.791Z,9.50
2022-12-03T08:07:00.235Z,13.27
2022-12-03T08:09:27.928Z,11.57
2022-12-03T08:11:56.109Z,9.17
2022-12-03T08:14:23.579Z,9.13
2022-12-03T08:16:51.398Z,12.13
2022-12-03T08:19:21.081Z,6.83
2022-12-03T08:21:48.547Z,13.93
2022-12-03T08:24:19.294Z,11.13
2022-12-03T08:26:50.024Z,13.20
2022-12-03T08:29:20.380Z,10.07
2022-12-03T08:31:55.170Z,12.93
2022-12-03T08:34:26.154Z,13.90
2022-12-03T08:37:01.283Z,13.97
2022-12-03T08:39:30.788Z,13.00
2022-12-03T08:42:44.046Z,15.07
2022-12-03T08:45:29.781Z,14.90
2022-12-03T08:48:43.968Z,11.50
2022-12-03T08:51:27.554Z,10.43
2022-12-03T08:54:03.924Z,12.20
2022-12-03T08:56:36.182Z,11.80
2022-12-03T08:59:22.388Z,16.33
2022-12-03T09:01:51.895Z,11.10
2022-12-03T09:04:43.013Z,10.50
2022-12-03T09:07:10.614Z,14.43
2022-12-03T09:09:39.004Z,16.23
2022-12-03T09:12:06.667Z,13.77
2022-12-03T09:14:34.136Z,12.33
2022-12-03T09:17:01.735Z,12.17
2022-12-03T09:19:31.329Z,13.20
2022-12-03T09:21:58.733Z,13.97
2022-12-03T09:24:26.187Z,13.47
2022-12-03T09:26:53.694Z,11.30
2022-12-03T09:29:21.159Z,13.17
2022-12-03T09:31:48.859Z,13.43
2022-12-03T09:34:16.391Z,12.70
2022-12-03T09:36:44.031Z,13.27
2022-12-03T09:39:11.574Z,9.87
2022-12-03T09:41:39.229Z,12.43
2022-12-03T09:44:09.623Z,10.87
2022-12-03T09:46:43.043Z,12.40
2022-12-03T09:49:16.075Z,14.43
2022-12-03T09:51:45.751Z,14.97
2022-12-03T09:54:27.740Z,13.57
2022-12-03T09:56:57.539Z,12.53
2022-12-03T09:59:30.051Z,13.83
2022-12-03T10:01:58.079Z,12.20
2022-12-03T10:04:26.958Z,14.90
2022-12-03T10:06:54.966Z,11.13
2022-12-03T10:09:26.197Z,13.40
2022-12-03T10:11:54.792Z,14.23
2022-12-03T10:14:22.393Z,11.20
2022-12-03T10:16:50.197Z,12.73
2022-12-03T10:19:27.883Z,12.37
2022-12-03T10:21:55.987Z,14.47
2022-12-03T10:24:34.974Z,12.70
2022-12-03T10:27:05.229Z,16.53
2022-12-03T10:29:35.552Z,11.20
2022-12-03T10:32:04.950Z,14.20
2022-12-03T10:34:34.102Z,14.27
2022-12-03T10:37:21.645Z,13.37
2022-12-03T10:40:02.634Z,13.47
2022-12-03T10:42:33.765Z,15.00
2022-12-03T10:45:21.305Z,15.37
2022-12-03T10:48:15.990Z,13.50
2022-12-03T10:51:10.513Z,13.60
2022-12-03T10:53:40.788Z,16.80
2022-12-03T10:56:14.047Z,14.00
2022-12-03T10:58:42.539Z,12.73
2022-12-03T11:01:19.478Z,15.07
2022-12-03T11:03:48.023Z,13.10
2022-12-03T11:06:18.669Z,12.43
2022-12-03T11:08:56.801Z,10.67
2022-12-03T11:11:28.314Z,16.93
2022-12-03T11:14:05.586Z,14.37
2022-12-03T11:16:42.243Z,13.33
2022-12-03T11:19:13.023Z,14.47
2022-12-03T11:22:05.478Z,12.80
2022-12-03T11:24:38.735Z,21.48
2022-12-03T11:27:08.037Z,15.90
2022-12-03T11:29:54.780Z,13.87
2022-12-03T11:32:43.340Z,14.83
2022-12-03T11:35:16.074Z,13.40
2022-12-03T11:40:16.824Z,14.33
2022-12-03T11:42:46.227Z,13.57
2022-12-03T11:45:37.611Z,15.03
2022-12-03T11:48:16.594Z,19.13
2022-12-03T11:50:51.355Z,14.83
2022-12-03T11:53:25.049Z,11.90
2022-12-03T11:56:08.684Z,12.70
2022-12-03T11:58:38.663Z,17.20
2022-12-03T12:01:08.498Z,16.27
2022-12-03T12:03:43.831Z,13.57
2022-12-03T12:06:22.066Z,12.90
2022-12-03T12:08:51.722Z,12.07
2022-12-03T12:11:35.101Z,14.53
2022-12-03T12:14:10.022Z,14.60
2022-12-03T12:16:53.296Z,16.97
2022-12-03T12:19:35.775Z,19.00
2022-12-03T12:22:30.060Z,15.85
2022-12-03T12:25:01.545Z,17.70
2022-12-03T12:27:51.305Z,15.53
2022-12-03T12:30:21.802Z,16.67
2022-12-03T12:32:50.933Z,15.73
2022-12-03T12:35:22.859Z,15.83
2022-12-03T12:38:17.567Z,14.50
2022-12-03T12:40:49.469Z,14.60
2022-12-03T12:43:33.925Z,13.38
2022-12-03T12:46:38.677Z,16.90
2022-12-03T12:48:59.344Z,17.75
2022-12-03T12:51:27.317Z,15.10
2022-12-03T12:53:54.985Z,15.67
2022-12-03T12:56:32.410Z,15.73
2022-12-03T12:59:12.199Z,15.63
2022-12-03T13:01:40.245Z,16.23
2022-12-03T13:04:22.988Z,16.40
2022-12-03T13:06:54.515Z,15.13
2022-12-03T13:09:24.732Z,14.50
2022-12-03T13:11:54.697Z,13.70
2022-12-03T13:14:24.606Z,12.80
2022-12-03T13:16:55.490Z,14.60
2022-12-03T13:19:24.742Z,13.57
2022-12-03T13:21:57.728Z,15.50
2022-12-03T13:24:43.971Z,14.47
2022-12-03T13:27:20.137Z,17.47
2022-12-03T13:29:56.043Z,18.30
2022-12-03T13:32:31.318Z,14.50
2022-12-03T13:35:10.513Z,16.37
2022-12-03T13:37:38.783Z,17.20
2022-12-03T13:40:22.934Z,15.60
2022-12-03T13:42:50.602Z,16.33
2022-12-03T13:45:17.990Z,14.97
2022-12-03T13:47:49.847Z,12.03
2022-12-03T13:50:44.721Z,14.48
2022-12-03T13:53:12.176Z,13.27
2022-12-03T13:55:43.929Z,16.20
2022-12-03T13:58:11.385Z,16.97
2022-12-03T14:00:39.081Z,14.10
2022-12-03T14:03:06.959Z,14.23
2022-12-03T14:05:34.621Z,16.57
2022-12-03T14:08:03.229Z,13.83
2022-12-03T14:10:31.049Z,17.00
2022-12-03T14:12:58.903Z,14.27
2022-12-03T14:15:26.773Z,13.87
2022-12-03T14:17:54.368Z,13.07
2022-12-03T14:20:22.127Z,14.20
2022-12-03T14:22:49.664Z,14.27
2022-12-03T14:25:17.281Z,13.90
2022-12-03T14:27:44.802Z,11.03
2022-12-03T14:30:12.764Z,12.37
2022-12-03T14:32:40.347Z,13.50
2022-12-03T14:35:10.270Z,14.47
2022-12-03T14:37:37.894Z,13.87
2022-12-03T14:40:09.239Z,14.00
2022-12-03T14:42:37.246Z,13.97
2022-12-03T14:45:04.963Z,16.50
2022-12-03T14:47:32.407Z,17.33
2022-12-03T14:50:00.691Z,17.77
2022-12-03T14:52:30.971Z,19.70
2022-12-03T14:54:58.372Z,15.37
2022-12-03T14:57:25.983Z,18.47
2022-12-03T14:59:53.635Z,14.63
2022-12-03T15:02:21.538Z,16.60
2022-12-03T15:04:48.948Z,17.60
2022-12-03T15:07:16.438Z,18.00
2022-12-03T15:09:44.125Z,22.23
2022-12-03T15:12:11.778Z,18.93
2022-12-03T15:14:39.511Z,18.23
2022-12-03T15:17:07.557Z,16.77
2022-12-03T15:19:50.453Z,19.13
2022-12-03T15:22:18.003Z,19.90
2022-12-03T15:24:46.150Z,18.73
2022-12-03T15:27:13.591Z,12.67
2022-12-03T15:29:41.598Z,19.67
2022-12-03T15:32:08.971Z,17.03
2022-12-03T15:34:36.490Z,24.53
2022-12-03T15:37:04.000Z,15.13
2022-12-03T15:39:33.161Z,16.10
2022-12-03T15:42:00.579Z,18.37
2022-12-03T15:44:28.334Z,19.00
2022-12-03T15:46:56.046Z,16.67
2022-12-03T15:49:26.602Z,18.73
2022-12-03T15:51:54.355Z,17.77
2022-12-03T15:54:22.194Z,20.27
2022-12-03T15:56:57.082Z,16.03
2022-12-03T15:59:28.193Z,13.77
2022-12-03T16:01:56.181Z,14.37
2022-12-03T16:04:24.129Z,18.13
2022-12-03T16:06:52.234Z,14.50
2022-12-03T16:09:26.762Z,15.17
2022-12-03T16:11:55.685Z,13.30
2022-12-03T16:14:23.414Z,16.63
2022-12-03T16:16:51.281Z,19.87
2022-12-03T16:19:19.528Z,14.80
2022-12-03T16:21:47.323Z,16.80
2022-12-03T16:24:14.895Z,13.67
2022-12-03T16:26:42.328Z,12.93
2022-12-03T16:29:09.980Z,13.53
2022-12-03T16:31:37.563Z,16.13
2022-12-03T16:34:05.184Z,14.73
2022-12-03T16:36:32.612Z,13.00
2022-12-03T16:39:00.171Z,13.70
2022-12-03T16:41:27.607Z,16.60
2022-12-03T16:43:55.218Z,16.07
2022-12-03T16:46:26.455Z,16.10
2022-12-03T16:48:56.621Z,12.90
2022-12-03T16:51:30.469Z,15.17
2022-12-03T16:53:57.903Z,15.53
2022-12-03T16:56:25.372Z,11.77
2022-12-03T16:58:52.942Z,9.80
2022-12-03T17:01:23.557Z,13.47
2022-12-03T17:03:51.188Z,13.00
2022-12-03T17:06:18.525Z,12.43
2022-12-03T17:08:49.595Z,12.37
2022-12-03T17:11:18.157Z,13.87
2022-12-03T17:13:45.908Z,16.90
2022-12-03T17:16:13.518Z,13.83
2022-12-03T17:18:41.344Z,15.17
2022-12-03T17:21:08.934Z,13.53
2022-12-03T17:23:36.409Z,16.93
2022-12-03T17:26:03.805Z,13.37
2022-12-03T17:28:31.337Z,15.83
2022-12-03T17:30:58.876Z,12.23
2022-12-03T17:33:26.348Z,13.33
2022-12-03T17:35:53.806Z,15.27
2022-12-03T17:38:21.303Z,18.10
2022-12-03T17:40:49.816Z,10.28
2022-12-03T17:43:17.238Z,14.57
2022-12-03T17:45:44.767Z,12.77
2022-12-03T17:48:12.234Z,14.53
2022-12-03T17:50:39.757Z,12.47
2022-12-03T17:53:10.494Z,13.50
2022-12-03T17:55:44.585Z,15.37
2022-12-03T17:58:13.406Z,11.23
2022-12-03T18:00:42.654Z,14.67
2022-12-03T18:03:10.274Z,11.53
2022-12-03T18:05:37.809Z,14.10
2022-12-03T18:08:05.738Z,10.73
2022-12-03T18:10:33.410Z,12.10
2022-12-03T18:13:02.361Z,13.73
2022-12-03T18:15:30.829Z,17.53
2022-12-03T18:17:58.408Z,11.60
2022-12-03T18:20:26.494Z,14.30
2022-12-03T18:22:54.994Z,10.13
2022-12-03T18:25:22.464Z,13.63
2022-12-03T18:27:50.105Z,11.13
2022-12-03T18:30:17.787Z,11.57
2022-12-03T18:32:45.336Z,11.97
2022-12-03T18:35:13.625Z,12.10
2022-12-03T18:37:41.931Z,11.10
2022-12-03T18:40:18.296Z,12.53
2022-12-03T18:42:46.027Z,13.27
2022-12-03T18:45:15.088Z,11.40
2022-12-03T18:47:43.483Z,13.83
2022-12-03T18:50:13.203Z,12.77
2022-12-03T18:52:42.272Z,13.00
2022-12-03T18:55:22.294Z,20.60
2022-12-03T18:57:49.886Z,11.70
2022-12-03T19:00:17.961Z,11.97
2022-12-03T19:03:02.587Z,18.17
2022-12-03T19:05:33.067Z,19.63
2022-12-03T19:08:01.143Z,13.40
2022-12-03T19:10:29.502Z,12.13
2022-12-03T19:12:58.216Z,18.53
2022-12-03T19:15:25.669Z,15.00
2022-12-03T19:17:55.088Z,17.73
2022-12-03T19:20:22.840Z,23.63
2022-12-03T19:22:51.752Z,17.53
2022-12-03T19:25:19.316Z,17.83
2022-12-03T19:27:46.869Z,14.30
2022-12-03T19:30:14.574Z,14.97
2022-12-03T19:32:42.103Z,15.30
2022-12-03T19:35:11.564Z,16.03
2022-12-03T19:37:40.423Z,13.47
2022-12-03T19:40:10.539Z,16.77
2022-12-03T19:42:40.379Z,14.93
2022-12-03T19:45:09.549Z,14.33
2022-12-03T19:47:37.584Z,11.03
2022-12-03T19:50:08.973Z,13.27
2022-12-03T19:52:37.757Z,13.43
2022-12-03T19:55:09.380Z,14.43
2022-12-03T19:57:36.995Z,12.90
2022-12-03T20:00:06.905Z,16.23
2022-12-03T20:02:39.892Z,12.97
2022-12-03T20:05:07.666Z,12.20
2022-12-03T20:07:35.313Z,12.47
2022-12-03T20:10:03.127Z,15.53
2022-12-03T20:12:30.765Z,13.00
2022-12-03T20:14:58.310Z,14.77
2022-12-03T20:17:25.840Z,13.17
2022-12-03T20:19:53.757Z,14.80
2022-12-03T20:22:21.594Z,15.17
2022-12-03T20:24:49.060Z,16.80
2022-12-03T20:27:22.465Z,13.27
2022-12-03T20:29:50.626Z,16.17
2022-12-03T20:32:18.264Z,19.13
2022-12-03T20:34:46.057Z,15.87
2022-12-03T20:37:13.489Z,13.13
2022-12-03T20:39:41.322Z,14.33
2022-12-03T20:42:11.959Z,11.43
2022-12-03T20:44:39.487Z,15.40
2022-12-03T20:47:07.024Z,10.23
2022-12-03T20:49:34.572Z,16.40
2022-12-03T20:52:04.591Z,13.37
2022-12-03T20:54:32.326Z,18.57
2022-12-03T20:56:59.811Z,16.38
2022-12-03T20:59:27.418Z,13.13
2022-12-03T21:01:55.044Z,12.20
2022-12-03T21:04:22.620Z,17.33
2022-12-03T21:06:50.184Z,14.20
2022-12-03T21:09:17.772Z,15.37
2022-12-03T21:11:45.479Z,13.33
2022-12-03T21:14:13.053Z,15.33
2022-12-03T21:19:30.230Z,14.63
2022-12-03T21:21:57.818Z,15.43
2022-12-03T21:24:25.449Z,17.23
2022-12-03T21:26:53.015Z,18.10
2022-12-03T21:29:20.526Z,13.70
2022-12-03T21:31:47.951Z,12.17
2022-12-03T21:34:15.664Z,9.87
2022-12-03T21:36:43.190Z,14.33
2022-12-03T21:39:10.857Z,16.10
2022-12-03T21:41:38.440Z,18.17
2022-12-03T21:44:06.085Z,15.30
2022-12-03T21:47:09.145Z,13.77
2022-12-03T21:49:22.812Z,15.70
2022-12-03T21:51:50.358Z,17.90
2022-12-03T21:54:17.817Z,10.97
2022-12-03T21:56:48.422Z,16.27
2022-12-03T21:59:16.006Z,17.27
2022-12-03T22:01:47.058Z,17.20
2022-12-03T22:04:15.058Z,15.97
2022-12-03T22:06:42.741Z,13.90
2022-12-03T22:09:10.275Z,15.07
2022-12-03T22:11:37.761Z,14.40
2022-12-03T22:14:06.989Z,13.20
2022-12-03T22:16:34.785Z,15.63
2022-12-03T22:19:02.410Z,12.70
2022-12-03T22:21:30.434Z,15.47
2022-12-03T22:23:57.897Z,14.70
2022-12-03T22:26:25.544Z,12.67
2022-12-03T22:28:53.146Z,16.17
2022-12-03T22:31:20.716Z,14.17
2022-12-03T22:33:49.879Z,15.03
2022-12-03T22:36:21.489Z,17.17
2022-12-03T22:38:53.536Z,19.10
2022-12-03T22:41:21.254Z,19.70
2022-12-03T22:43:50.470Z,15.00
2022-12-03T22:46:18.282Z,16.97
2022-12-03T22:48:46.883Z,18.90
2022-12-03T22:51:23.639Z,18.20
2022-12-03T22:54:02.071Z,16.80
2022-12-03T22:56:30.794Z,16.83
2022-12-03T22:58:58.816Z,22.00
2022-12-03T23:01:33.214Z,14.20
2022-12-03T23:04:01.321Z,13.27
2022-12-03T23:06:29.623Z,18.10
2022-12-03T23:08:58.846Z,14.13
2022-12-03T23:11:26.752Z,14.60
2022-12-03T23:13:54.680Z,15.73
2022-12-03T23:16:26.355Z,14.73
2022-12-03T23:18:54.257Z,20.40
2022-12-03T23:21:29.378Z,18.70
2022-12-03T23:24:00.867Z,16.97
2022-12-03T23:26:28.848Z,16.07
2022-12-03T23:28:57.064Z,18.97
2022-12-03T23:31:27.370Z,15.03
2022-12-03T23:33:59.490Z,16.53
2022-12-03T23:36:29.430Z,14.35
2022-12-03T23:38:57.674Z,16.57
2022-12-03T23:41:25.994Z,16.00
2022-12-03T23:43:53.741Z,22.23
2022-12-03T23:46:24.500Z,18.13
2022-12-03T23:48:52.971Z,18.87
2022-12-03T23:51:24.084Z,16.07
2022-12-03T23:53:53.285Z,17.07
2022-12-03T23:56:26.940Z,17.13
2022-12-03T23:58:55.943Z,16.83
